sensor_id;sensor_type;location;lat;lon;timestamp;pressure;altitude;pressure_sealevel;temperature;humidity
34674;BME280;20879;55.668;37.858;2023-04-22T00:00:57;99302.25;;;7.92;50.26
34674;BME280;20879;55.668;37.858;2023-04-22T00:03:27;99296.25;;;7.87;50.39
34674;BME280;20879;55.668;37.858;2023-04-22T00:06:05;99298.84;;;7.87;50.39
34674;BME280;20879;55.668;37.858;2023-04-22T00:08:34;99288.50;;;7.88;50.84
34674;BME280;20879;55.668;37.858;2023-04-22T00:11:04;99304.84;;;7.86;50.97
34674;BME280;20879;55.668;37.858;2023-04-22T00:13:34;99293.69;;;7.87;51.13
34674;BME280;20879;55.668;37.858;2023-04-22T00:16:03;99298.00;;;7.85;50.80
34674;BME280;20879;55.668;37.858;2023-04-22T00:18:33;99271.56;;;7.67;50.81
34674;BME280;20879;55.668;37.858;2023-04-22T00:21:05;99302.31;;;7.83;50.81
34674;BME280;20879;55.668;37.858;2023-04-22T00:23:34;99293.03;;;7.66;51.05
34674;BME280;20879;55.668;37.858;2023-04-22T00:26:04;99303.31;;;7.71;51.37
34674;BME280;20879;55.668;37.858;2023-04-22T00:28:33;99308.53;;;7.65;51.48
34674;BME280;20879;55.668;37.858;2023-04-22T00:31:03;99302.53;;;7.61;51.69
34674;BME280;20879;55.668;37.858;2023-04-22T00:33:34;99314.53;;;7.64;51.83
34674;BME280;20879;55.668;37.858;2023-04-22T00:36:05;99309.47;;;7.56;51.82
34674;BME280;20879;55.668;37.858;2023-04-22T00:38:35;99307.81;;;7.49;52.14
34674;BME280;20879;55.668;37.858;2023-04-22T00:41:09;99313.03;;;7.43;52.63
34674;BME280;20879;55.668;37.858;2023-04-22T00:43:39;99300.19;;;7.40;52.57
34674;BME280;20879;55.668;37.858;2023-04-22T00:46:15;99297.66;;;7.35;52.82
34674;BME280;20879;55.668;37.858;2023-04-22T00:48:44;99307.00;;;7.41;52.70
34674;BME280;20879;55.668;37.858;2023-04-22T00:51:17;99297.63;;;7.38;53.04
34674;BME280;20879;55.668;37.858;2023-04-22T00:53:47;99295.03;;;7.38;53.13
34674;BME280;20879;55.668;37.858;2023-04-22T00:56:27;99302.72;;;7.43;53.06
34674;BME280;20879;55.668;37.858;2023-04-22T00:58:58;99303.56;;;7.43;52.75
34674;BME280;20879;55.668;37.858;2023-04-22T01:01:29;99302.78;;;7.38;53.04
34674;BME280;20879;55.668;37.858;2023-04-22T01:03:59;99295.03;;;7.40;53.00
34674;BME280;20879;55.668;37.858;2023-04-22T01:06:34;99309.56;;;7.42;53.06
34674;BME280;20879;55.668;37.858;2023-04-22T01:09:06;99295.91;;;7.35;52.84
34674;BME280;20879;55.668;37.858;2023-04-22T01:11:35;99305.34;;;7.33;53.06
34674;BME280;20879;55.668;37.858;2023-04-22T01:14:05;99294.31;;;7.22;53.59
34674;BME280;20879;55.668;37.858;2023-04-22T01:16:34;99300.31;;;7.23;53.77
34674;BME280;20879;55.668;37.858;2023-04-22T01:19:10;99297.72;;;7.24;53.79
34674;BME280;20879;55.668;37.858;2023-04-22T01:21:42;99313.19;;;7.21;53.88
34674;BME280;20879;55.668;37.858;2023-04-22T01:24:15;99303.78;;;7.15;53.89
34674;BME280;20879;55.668;37.858;2023-04-22T01:26:50;99300.44;;;7.07;54.40
34674;BME280;20879;55.668;37.858;2023-04-22T01:29:35;99285.91;;;7.02;54.15
34674;BME280;20879;55.668;37.858;2023-04-22T01:32:07;99298.75;;;7.05;54.12
34674;BME280;20879;55.668;37.858;2023-04-22T01:34:37;99297.88;;;7.04;54.41
34674;BME280;20879;55.668;37.858;2023-04-22T01:37:06;99283.31;;;7.03;54.35
34674;BME280;20879;55.668;37.858;2023-04-22T01:39:38;99279.91;;;6.98;54.43
34674;BME280;20879;55.668;37.858;2023-04-22T01:42:08;99285.00;;;7.04;54.48
34674;BME280;20879;55.668;37.858;2023-04-22T01:44:38;99284.97;;;7.06;54.60
34674;BME280;20879;55.668;37.858;2023-04-22T01:47:08;99281.53;;;7.10;54.71
34674;BME280;20879;55.668;37.858;2023-04-22T01:49:39;99279.84;;;7.03;54.66
34674;BME280;20879;55.668;37.858;2023-04-22T01:52:08;99280.75;;;7.02;54.93
34674;BME280;20879;55.668;37.858;2023-04-22T01:54:41;99282.47;;;6.99;54.61
34674;BME280;20879;55.668;37.858;2023-04-22T01:57:11;99289.38;;;6.94;54.85
34674;BME280;20879;55.668;37.858;2023-04-22T01:59:42;99306.53;;;6.98;54.92
34674;BME280;20879;55.668;37.858;2023-04-22T02:02:17;99288.53;;;6.89;55.04
34674;BME280;20879;55.668;37.858;2023-04-22T02:04:47;99270.59;;;6.80;55.47
34674;BME280;20879;55.668;37.858;2023-04-22T02:07:16;99288.56;;;6.86;55.49
34674;BME280;20879;55.668;37.858;2023-04-22T02:09:52;99267.94;;;6.89;55.49
34674;BME280;20879;55.668;37.858;2023-04-22T02:12:22;99296.22;;;6.95;55.45
34674;BME280;20879;55.668;37.858;2023-04-22T02:14:57;99246.59;;;6.75;55.24
34674;BME280;20879;55.668;37.858;2023-04-22T02:17:34;99291.94;;;6.97;55.40
34674;BME280;20879;55.668;37.858;2023-04-22T02:20:05;99285.06;;;6.95;55.47
34674;BME280;20879;55.668;37.858;2023-04-22T02:22:42;99281.66;;;6.93;55.44
34674;BME280;20879;55.668;37.858;2023-04-22T02:25:14;99288.47;;;7.00;55.12
34674;BME280;20879;55.668;37.858;2023-04-22T02:27:43;99284.22;;;6.94;55.58
34674;BME280;20879;55.668;37.858;2023-04-22T02:30:14;99302.25;;;6.96;55.62
34674;BME280;20879;55.668;37.858;2023-04-22T02:32:44;99267.19;;;6.81;55.40
34674;BME280;20879;55.668;37.858;2023-04-22T02:35:13;99309.09;;;6.94;55.59
34674;BME280;20879;55.668;37.858;2023-04-22T02:37:42;99301.44;;;6.88;55.73
34674;BME280;20879;55.668;37.858;2023-04-22T02:40:12;99288.50;;;6.94;55.59
34674;BME280;20879;55.668;37.858;2023-04-22T02:42:43;99285.94;;;6.92;55.82
34674;BME280;20879;55.668;37.858;2023-04-22T02:45:14;99297.91;;;6.99;55.79
34674;BME280;20879;55.668;37.858;2023-04-22T02:47:45;99311.63;;;7.05;55.52
34674;BME280;20879;55.668;37.858;2023-04-22T02:50:19;99277.31;;;6.99;55.83
34674;BME280;20879;55.668;37.858;2023-04-22T02:52:54;99302.16;;;7.05;55.77
34674;BME280;20879;55.668;37.858;2023-04-22T02:55:23;99299.56;;;7.07;55.48
34674;BME280;20879;55.668;37.858;2023-04-22T02:57:57;99297.84;;;7.09;55.49
34674;BME280;20879;55.668;37.858;2023-04-22T03:00:31;99301.31;;;7.03;55.81
34674;BME280;20879;55.668;37.858;2023-04-22T03:03:06;99313.31;;;7.06;55.53
34674;BME280;20879;55.668;37.858;2023-04-22T03:05:35;99306.47;;;7.05;55.69
34674;BME280;20879;55.668;37.858;2023-04-22T03:08:05;99262.88;;;6.80;55.87
34674;BME280;20879;55.668;37.858;2023-04-22T03:10:40;99291.03;;;7.02;55.47
34674;BME280;20879;55.668;37.858;2023-04-22T03:13:11;99317.53;;;7.13;55.63
34674;BME280;20879;55.668;37.858;2023-04-22T03:15:42;99314.94;;;7.14;55.44
34674;BME280;20879;55.668;37.858;2023-04-22T03:18:12;99308.91;;;7.18;55.30
34674;BME280;20879;55.668;37.858;2023-04-22T03:20:43;99313.22;;;7.18;55.45
34674;BME280;20879;55.668;37.858;2023-04-22T03:23:14;99314.09;;;7.17;55.20
34674;BME280;20879;55.668;37.858;2023-04-22T03:25:44;99309.75;;;7.22;55.71
34674;BME280;20879;55.668;37.858;2023-04-22T03:28:21;99309.72;;;7.25;55.40
34674;BME280;20879;55.668;37.858;2023-04-22T03:30:50;99322.63;;;7.25;55.02
34674;BME280;20879;55.668;37.858;2023-04-22T03:33:20;99312.28;;;7.28;55.36
34674;BME280;20879;55.668;37.858;2023-04-22T03:35:55;99316.53;;;7.35;55.10
34674;BME280;20879;55.668;37.858;2023-04-22T03:38:25;99319.91;;;7.44;55.08
34674;BME280;20879;55.668;37.858;2023-04-22T03:40:55;99322.44;;;7.45;54.82
34674;BME280;20879;55.668;37.858;2023-04-22T03:43:42;99327.50;;;7.55;54.57
34674;BME280;20879;55.668;37.858;2023-04-22T03:46:11;99314.66;;;7.53;54.59
34674;BME280;20879;55.668;37.858;2023-04-22T03:48:47;99324.94;;;7.53;54.84
34674;BME280;20879;55.668;37.858;2023-04-22T03:51:26;99339.53;;;7.57;54.55
34674;BME280;20879;55.668;37.858;2023-04-22T03:53:58;99327.44;;;7.61;54.56
34674;BME280;20879;55.668;37.858;2023-04-22T03:56:31;99332.56;;;7.65;54.20
34674;BME280;20879;55.668;37.858;2023-04-22T03:59:03;99338.50;;;7.74;54.28
34674;BME280;20879;55.668;37.858;2023-04-22T04:01:33;99335.78;;;7.86;54.10
34674;BME280;20879;55.668;37.858;2023-04-22T04:04:06;99346.81;;;8.00;53.58
34674;BME280;20879;55.668;37.858;2023-04-22T04:06:54;99336.31;;;8.17;52.86
34674;BME280;20879;55.668;37.858;2023-04-22T04:09:23;99340.22;;;8.54;52.13
34674;BME280;20879;55.668;37.858;2023-04-22T04:11:53;99335.63;;;8.74;51.17
34674;BME280;20879;55.668;37.858;2023-04-22T04:14:24;99344.13;;;8.83;51.28
34674;BME280;20879;55.668;37.858;2023-04-22T04:17:04;99345.91;;;8.78;51.07
34674;BME280;20879;55.668;37.858;2023-04-22T04:19:35;99353.56;;;8.85;51.36
34674;BME280;20879;55.668;37.858;2023-04-22T04:22:15;99355.00;;;9.05;50.89
34674;BME280;20879;55.668;37.858;2023-04-22T04:24:55;99352.13;;;9.23;49.96
34674;BME280;20879;55.668;37.858;2023-04-22T04:27:30;99349.53;;;9.25;49.83
34674;BME280;20879;55.668;37.858;2023-04-22T04:30:08;99345.25;;;9.24;50.04
34674;BME280;20879;55.668;37.858;2023-04-22T04:35:43;99339.09;;;9.30;49.65
34674;BME280;20879;55.668;37.858;2023-04-22T04:38:23;99336.44;;;9.36;49.41
34674;BME280;20879;55.668;37.858;2023-04-22T04:40:53;99336.41;;;9.39;49.24
34674;BME280;20879;55.668;37.858;2023-04-22T04:43:24;99336.38;;;9.40;49.54
34674;BME280;20879;55.668;37.858;2023-04-22T04:46:14;99344.81;;;9.50;48.91
34674;BME280;20879;55.668;37.858;2023-04-22T04:48:51;99348.19;;;9.54;48.49
34674;BME280;20879;55.668;37.858;2023-04-22T04:51:22;99348.84;;;9.67;48.88
34674;BME280;20879;55.668;37.858;2023-04-22T04:53:56;99346.91;;;9.79;48.20
34674;BME280;20879;55.668;37.858;2023-04-22T04:56:35;99333.00;;;9.85;48.34
34674;BME280;20879;55.668;37.858;2023-04-22T04:59:07;99350.06;;;9.94;47.79
34674;BME280;20879;55.668;37.858;2023-04-22T05:01:46;99343.84;;;10.04;47.99
34674;BME280;20879;55.668;37.858;2023-04-22T05:04:15;99332.78;;;9.97;47.48
34674;BME280;20879;55.668;37.858;2023-04-22T05:06:46;99356.75;;;10.06;47.54
34674;BME280;20879;55.668;37.858;2023-04-22T05:09:16;99348.25;;;10.01;47.67
34674;BME280;20879;55.668;37.858;2023-04-22T05:11:47;99352.25;;;10.15;47.06
34674;BME280;20879;55.668;37.858;2023-04-22T05:14:19;99343.84;;;10.04;47.05
34674;BME280;20879;55.668;37.858;2023-04-22T05:16:52;99349.88;;;10.06;47.03
34674;BME280;20879;55.668;37.858;2023-04-22T05:19:22;99347.16;;;10.12;47.16
34674;BME280;20879;55.668;37.858;2023-04-22T05:21:53;99351.38;;;10.17;46.63
34674;BME280;20879;55.668;37.858;2023-04-22T05:24:23;99342.09;;;10.06;46.49
34674;BME280;20879;55.668;37.858;2023-04-22T05:26:53;99346.28;;;10.13;46.75
34674;BME280;20879;55.668;37.858;2023-04-22T05:29:23;99337.81;;;10.05;46.75
34674;BME280;20879;55.668;37.858;2023-04-22T05:31:54;99355.63;;;10.21;46.41
34674;BME280;20879;55.668;37.858;2023-04-22T05:34:25;99341.72;;;10.26;46.06
34674;BME280;20879;55.668;37.858;2023-04-22T05:36:55;99354.53;;;10.34;45.70
34674;BME280;20879;55.668;37.858;2023-04-22T05:39:25;99339.69;;;10.42;45.60
34674;BME280;20879;55.668;37.858;2023-04-22T05:41:56;99355.03;;;10.52;45.46
34674;BME280;20879;55.668;37.858;2023-04-22T05:44:33;99344.59;;;10.56;44.61
34674;BME280;20879;55.668;37.858;2023-04-22T05:47:04;99342.78;;;10.60;44.84
34674;BME280;20879;55.668;37.858;2023-04-22T05:49:34;99351.31;;;10.65;44.13
34674;BME280;20879;55.668;37.858;2023-04-22T05:52:13;99337.56;;;10.61;44.16
34674;BME280;20879;55.668;37.858;2023-04-22T05:55:06;99343.38;;;10.73;43.60
34674;BME280;20879;55.668;37.858;2023-04-22T05:57:42;99352.81;;;10.75;43.90
34674;BME280;20879;55.668;37.858;2023-04-22T06:00:31;99342.25;;;10.84;43.57
34674;BME280;20879;55.668;37.858;2023-04-22T06:03:17;99331.09;;;10.81;43.54
34674;BME280;20879;55.668;37.858;2023-04-22T06:05:46;99327.56;;;10.85;43.38
34674;BME280;20879;55.668;37.858;2023-04-22T06:08:21;99338.56;;;10.95;43.49
34674;BME280;20879;55.668;37.858;2023-04-22T06:10:51;99326.41;;;10.98;42.84
34674;BME280;20879;55.668;37.858;2023-04-22T06:13:28;99347.97;;;10.99;42.92
34674;BME280;20879;55.668;37.858;2023-04-22T06:15:58;99349.38;;;11.12;42.93
34674;BME280;20879;55.668;37.858;2023-04-22T06:18:29;99350.94;;;11.19;43.06
34674;BME280;20879;55.668;37.858;2023-04-22T06:21:00;99346.63;;;11.20;43.23
34674;BME280;20879;55.668;37.858;2023-04-22T06:23:30;99355.75;;;11.36;42.94
34674;BME280;20879;55.668;37.858;2023-04-22T06:26:05;99320.88;;;11.48;42.89
34674;BME280;20879;55.668;37.858;2023-04-22T06:28:36;99355.38;;;11.50;42.25
34674;BME280;20879;55.668;37.858;2023-04-22T06:31:10;99350.19;;;11.50;41.84
34674;BME280;20879;55.668;37.858;2023-04-22T06:33:42;99318.28;;;11.48;42.20
34674;BME280;20879;55.668;37.858;2023-04-22T06:36:12;99345.09;;;11.47;41.76
34674;BME280;20879;55.668;37.858;2023-04-22T06:38:45;99338.78;;;11.58;41.22
34674;BME280;20879;55.668;37.858;2023-04-22T06:41:47;99326.31;;;11.72;41.04
34674;BME280;20879;55.668;37.858;2023-04-22T06:44:50;99325.41;;;11.75;40.91
34674;BME280;20879;55.668;37.858;2023-04-22T06:47:35;99327.19;;;11.71;41.13
34674;BME280;20879;55.668;37.858;2023-04-22T06:50:11;99340.16;;;11.71;41.65
34674;BME280;20879;55.668;37.858;2023-04-22T06:52:57;99335.72;;;11.76;41.36
34674;BME280;20879;55.668;37.858;2023-04-22T06:55:27;99330.25;;;11.87;41.28
34674;BME280;20879;55.668;37.858;2023-04-22T06:57:56;99331.56;;;12.03;40.87
34674;BME280;20879;55.668;37.858;2023-04-22T07:00:26;99328.56;;;12.19;40.18
34674;BME280;20879;55.668;37.858;2023-04-22T07:02:57;99333.19;;;12.39;39.58
34674;BME280;20879;55.668;37.858;2023-04-22T07:05:30;99322.34;;;12.54;39.50
34674;BME280;20879;55.668;37.858;2023-04-22T07:08:07;99321.50;;;12.82;39.12
34674;BME280;20879;55.668;37.858;2023-04-22T07:10:38;99329.72;;;12.97;38.91
34674;BME280;20879;55.668;37.858;2023-04-22T07:13:30;99308.56;;;12.81;38.61
34674;BME280;20879;55.668;37.858;2023-04-22T07:16:00;99328.50;;;12.52;38.67
34674;BME280;20879;55.668;37.858;2023-04-22T07:18:29;99336.41;;;12.77;38.64
34674;BME280;20879;55.668;37.858;2023-04-22T07:21:01;99320.44;;;13.16;37.32
34674;BME280;20879;55.668;37.858;2023-04-22T07:23:30;99318.41;;;13.53;36.99
34674;BME280;20879;55.668;37.858;2023-04-22T07:25:59;99327.19;;;13.50;36.35
34674;BME280;20879;55.668;37.858;2023-04-22T07:28:29;99314.81;;;13.57;36.88
34674;BME280;20879;55.668;37.858;2023-04-22T07:31:03;99321.19;;;13.48;36.18
34674;BME280;20879;55.668;37.858;2023-04-22T07:33:33;99323.25;;;13.38;36.69
34674;BME280;20879;55.668;37.858;2023-04-22T07:36:05;99330.03;;;13.42;36.53
34674;BME280;20879;55.668;37.858;2023-04-22T07:38:36;99326.81;;;13.61;36.69
34674;BME280;20879;55.668;37.858;2023-04-22T07:41:05;99327.00;;;13.81;35.82
34674;BME280;20879;55.668;37.858;2023-04-22T07:43:34;99318.47;;;14.02;35.95
34674;BME280;20879;55.668;37.858;2023-04-22T07:46:09;99326.59;;;14.18;35.68
34674;BME280;20879;55.668;37.858;2023-04-22T07:48:39;99331.34;;;14.30;35.15
34674;BME280;20879;55.668;37.858;2023-04-22T07:51:10;99326.25;;;14.27;34.74
34674;BME280;20879;55.668;37.858;2023-04-22T07:53:40;99338.06;;;14.12;35.18
34674;BME280;20879;55.668;37.858;2023-04-22T07:56:09;99312.13;;;13.85;35.14
34674;BME280;20879;55.668;37.858;2023-04-22T07:58:38;99320.72;;;13.62;35.21
34674;BME280;20879;55.668;37.858;2023-04-22T08:01:10;99325.59;;;13.46;35.06
34674;BME280;20879;55.668;37.858;2023-04-22T08:03:40;99330.84;;;13.44;35.47
34674;BME280;20879;55.668;37.858;2023-04-22T08:06:11;99325.16;;;14.09;34.82
34674;BME280;20879;55.668;37.858;2023-04-22T08:08:40;99333.88;;;14.55;34.19
34674;BME280;20879;55.668;37.858;2023-04-22T08:11:11;99328.31;;;15.10;33.39
34674;BME280;20879;55.668;37.858;2023-04-22T08:13:40;99315.88;;;15.60;32.34
34674;BME280;20879;55.668;37.858;2023-04-22T08:16:10;99316.59;;;15.63;31.46
34674;BME280;20879;55.668;37.858;2023-04-22T08:18:40;99316.09;;;15.33;31.77
34674;BME280;20879;55.668;37.858;2023-04-22T08:21:11;99288.78;;;14.99;32.33
34674;BME280;20879;55.668;37.858;2023-04-22T08:23:41;99331.69;;;14.44;33.06
34674;BME280;20879;55.668;37.858;2023-04-22T08:26:10;99314.28;;;14.45;33.82
34674;BME280;20879;55.668;37.858;2023-04-22T08:28:42;99330.38;;;14.32;33.70
34674;BME280;20879;55.668;37.858;2023-04-22T08:31:11;99339.84;;;14.35;34.13
34674;BME280;20879;55.668;37.858;2023-04-22T08:33:40;99318.50;;;14.49;33.80
34674;BME280;20879;55.668;37.858;2023-04-22T08:36:12;99349.75;;;14.49;33.68
34674;BME280;20879;55.668;37.858;2023-04-22T08:38:42;99330.38;;;14.32;33.71
34674;BME280;20879;55.668;37.858;2023-04-22T08:41:15;99326.38;;;14.24;33.89
34674;BME280;20879;55.668;37.858;2023-04-22T08:43:46;99325.41;;;14.26;34.05
34674;BME280;20879;55.668;37.858;2023-04-22T08:46:21;99331.88;;;14.40;33.94
34674;BME280;20879;55.668;37.858;2023-04-22T08:48:53;99311.66;;;14.70;33.29
34674;BME280;20879;55.668;37.858;2023-04-22T08:51:25;99324.91;;;14.86;33.10
34674;BME280;20879;55.668;37.858;2023-04-22T08:53:55;99341.03;;;15.18;33.01
34674;BME280;20879;55.668;37.858;2023-04-22T08:56:25;99317.75;;;15.35;32.75
34674;BME280;20879;55.668;37.858;2023-04-22T08:58:55;99326.06;;;15.23;33.10
34674;BME280;20879;55.668;37.858;2023-04-22T09:01:26;99328.56;;;15.26;31.60
34674;BME280;20879;55.668;37.858;2023-04-22T09:03:58;99323.94;;;15.11;31.55
34674;BME280;20879;55.668;37.858;2023-04-22T09:06:31;99336.19;;;15.31;31.57
34674;BME280;20879;55.668;37.858;2023-04-22T09:09:01;99324.06;;;15.50;31.08
34674;BME280;20879;55.668;37.858;2023-04-22T09:11:31;99294.53;;;15.50;31.79
34674;BME280;20879;55.668;37.858;2023-04-22T09:14:02;99336.16;;;15.10;32.60
34674;BME280;20879;55.668;37.858;2023-04-22T09:16:40;99328.31;;;14.88;32.66
34674;BME280;20879;55.668;37.858;2023-04-22T09:19:10;99328.56;;;14.82;33.11
34674;BME280;20879;55.668;37.858;2023-04-22T09:21:43;99328.66;;;14.55;33.50
34674;BME280;20879;55.668;37.858;2023-04-22T09:27:04;99315.22;;;14.67;32.54
34674;BME280;20879;55.668;37.858;2023-04-22T09:29:33;99316.06;;;14.90;32.21
34674;BME280;20879;55.668;37.858;2023-04-22T09:32:09;99312.63;;;15.12;31.77
34674;BME280;20879;55.668;37.858;2023-04-22T09:34:52;99301.38;;;15.32;30.70
34674;BME280;20879;55.668;37.858;2023-04-22T09:37:31;99282.84;;;15.17;30.65
34674;BME280;20879;55.668;37.858;2023-04-22T09:40:15;99293.63;;;14.86;31.54
34674;BME280;20879;55.668;37.858;2023-04-22T09:42:49;99295.84;;;14.75;32.24
34674;BME280;20879;55.668;37.858;2023-04-22T09:45:29;99311.88;;;14.64;32.17
34674;BME280;20879;55.668;37.858;2023-04-22T09:48:01;99307.53;;;14.41;32.33
34674;BME280;20879;55.668;37.858;2023-04-22T09:50:31;99314.41;;;14.42;32.92
34674;BME280;20879;55.668;37.858;2023-04-22T09:53:04;99319.97;;;14.56;32.55
34674;BME280;20879;55.668;37.858;2023-04-22T09:55:37;99320.19;;;14.74;32.59
34674;BME280;20879;55.668;37.858;2023-04-22T09:58:09;99265.09;;;14.83;32.19
34674;BME280;20879;55.668;37.858;2023-04-22T10:00:44;99315.31;;;15.31;31.93
34674;BME280;20879;55.668;37.858;2023-04-22T10:03:16;99295.19;;;15.34;31.71
34674;BME280;20879;55.668;37.858;2023-04-22T10:05:46;99301.38;;;15.32;31.97
34674;BME280;20879;55.668;37.858;2023-04-22T10:08:17;99305.25;;;15.64;31.85
34674;BME280;20879;55.668;37.858;2023-04-22T10:10:47;99277.59;;;15.81;31.81
34674;BME280;20879;55.668;37.858;2023-04-22T10:13:17;99288.69;;;15.65;31.51
34674;BME280;20879;55.668;37.858;2023-04-22T10:15:54;99310.84;;;15.76;30.76
34674;BME280;20879;55.668;37.858;2023-04-22T10:18:26;99281.09;;;15.59;30.54
34674;BME280;20879;55.668;37.858;2023-04-22T10:20:57;99308.47;;;15.49;30.55
34674;BME280;20879;55.668;37.858;2023-04-22T10:23:31;99309.50;;;15.87;30.16
34674;BME280;20879;55.668;37.858;2023-04-22T10:26:04;99296.16;;;16.33;29.68
34674;BME280;20879;55.668;37.858;2023-04-22T10:28:33;99299.75;;;16.31;29.58
34674;BME280;20879;55.668;37.858;2023-04-22T10:31:19;99266.34;;;15.99;29.62
34674;BME280;20879;55.668;37.858;2023-04-22T10:33:49;99294.41;;;15.53;30.31
34674;BME280;20879;55.668;37.858;2023-04-22T10:36:19;99272.69;;;14.89;31.22
34674;BME280;20879;55.668;37.858;2023-04-22T10:39:17;99310.16;;;14.87;31.70
34674;BME280;20879;55.668;37.858;2023-04-22T10:42:10;99309.72;;;14.51;32.64
34674;BME280;20879;55.668;37.858;2023-04-22T10:47:33;99302.88;;;14.25;33.17
34674;BME280;20879;55.668;37.858;2023-04-22T10:50:17;99280.97;;;14.31;33.10
34674;BME280;20879;55.668;37.858;2023-04-22T10:52:49;99287.00;;;14.31;32.84
34674;BME280;20879;55.668;37.858;2023-04-22T10:55:21;99312.34;;;14.28;32.70
34674;BME280;20879;55.668;37.858;2023-04-22T10:57:52;99311.19;;;14.35;32.76
34674;BME280;20879;55.668;37.858;2023-04-22T11:00:30;99300.25;;;14.49;32.67
34674;BME280;20879;55.668;37.858;2023-04-22T11:03:27;99289.16;;;14.67;32.31
34674;BME280;20879;55.668;37.858;2023-04-22T11:06:21;99294.69;;;14.82;32.16
34674;BME280;20879;55.668;37.858;2023-04-22T11:09:08;99259.53;;;14.70;30.50
34674;BME280;20879;55.668;37.858;2023-04-22T11:11:40;99303.53;;;14.54;31.24
34674;BME280;20879;55.668;37.858;2023-04-22T11:14:10;99298.91;;;14.62;30.76
34674;BME280;20879;55.668;37.858;2023-04-22T11:16:45;99299.41;;;14.72;30.16
34674;BME280;20879;55.668;37.858;2023-04-22T11:19:15;99250.63;;;14.98;29.31
34674;BME280;20879;55.668;37.858;2023-04-22T11:21:45;99279.44;;;14.93;29.23
34674;BME280;20879;55.668;37.858;2023-04-22T11:24:22;99281.84;;;14.99;29.83
34674;BME280;20879;55.668;37.858;2023-04-22T11:26:54;99296.41;;;15.03;29.69
34674;BME280;20879;55.668;37.858;2023-04-22T11:29:25;99284.75;;;15.34;30.05
34674;BME280;20879;55.668;37.858;2023-04-22T11:31:58;99286.44;;;15.77;29.73
34674;BME280;20879;55.668;37.858;2023-04-22T11:34:28;99287.75;;;15.87;29.48
34674;BME280;20879;55.668;37.858;2023-04-22T11:36:58;99274.56;;;15.69;29.35
34674;BME280;20879;55.668;37.858;2023-04-22T11:39:34;99286.25;;;15.61;29.95
34674;BME280;20879;55.668;37.858;2023-04-22T11:42:14;99292.69;;;15.52;30.04
34674;BME280;20879;55.668;37.858;2023-04-22T11:44:44;99286.78;;;15.48;29.76
34674;BME280;20879;55.668;37.858;2023-04-22T11:47:13;99271.97;;;15.49;30.35
34674;BME280;20879;55.668;37.858;2023-04-22T11:49:58;99272.50;;;15.57;29.72
34674;BME280;20879;55.668;37.858;2023-04-22T11:52:45;99276.81;;;15.58;29.35
34674;BME280;20879;55.668;37.858;2023-04-22T11:55:19;99275.69;;;15.64;28.72
34674;BME280;20879;55.668;37.858;2023-04-22T11:57:59;99277.56;;;16.01;28.69
34674;BME280;20879;55.668;37.858;2023-04-22T12:00:31;99251.09;;;16.28;27.77
34674;BME280;20879;55.668;37.858;2023-04-22T12:03:01;99248.00;;;16.20;27.26
34674;BME280;20879;55.668;37.858;2023-04-22T12:05:39;99263.09;;;16.13;27.97
34674;BME280;20879;55.668;37.858;2023-04-22T12:08:10;99251.66;;;15.97;27.96
34674;BME280;20879;55.668;37.858;2023-04-22T12:10:48;99243.97;;;15.73;28.60
34674;BME280;20879;55.668;37.858;2023-04-22T12:13:20;99271.19;;;15.67;28.85
34674;BME280;20879;55.668;37.858;2023-04-22T12:15:54;99254.50;;;15.51;29.15
34674;BME280;20879;55.668;37.858;2023-04-22T12:18:30;99279.09;;;15.02;29.50
34674;BME280;20879;55.668;37.858;2023-04-22T12:21:08;99245.53;;;14.73;29.89
34674;BME280;20879;55.668;37.858;2023-04-22T12:23:42;99274.88;;;14.54;30.41
34674;BME280;20879;55.668;37.858;2023-04-22T12:29:03;99276.53;;;14.33;30.83
34674;BME280;20879;55.668;37.858;2023-04-22T12:31:32;99255.53;;;14.38;30.22
34674;BME280;20879;55.668;37.858;2023-04-22T12:34:01;99270.19;;;14.40;29.98
34674;BME280;20879;55.668;37.858;2023-04-22T12:36:32;99244.97;;;14.42;30.18
34674;BME280;20879;55.668;37.858;2023-04-22T12:39:01;99259.06;;;14.59;30.18
34674;BME280;20879;55.668;37.858;2023-04-22T12:41:30;99245.25;;;14.57;29.95
34674;BME280;20879;55.668;37.858;2023-04-22T12:44:08;99263.88;;;14.70;29.83
34674;BME280;20879;55.668;37.858;2023-04-22T12:51:53;99263.63;;;14.30;30.68
34674;BME280;20879;55.668;37.858;2023-04-22T12:54:23;99248.81;;;14.08;31.35
34674;BME280;20879;55.668;37.858;2023-04-22T12:56:52;99256.78;;;14.04;31.20
34674;BME280;20879;55.668;37.858;2023-04-22T12:59:24;99255.72;;;14.09;30.98
34674;BME280;20879;55.668;37.858;2023-04-22T13:01:58;99258.16;;;14.14;30.90
34674;BME280;20879;55.668;37.858;2023-04-22T13:04:28;99258.59;;;14.25;30.82
34674;BME280;20879;55.668;37.858;2023-04-22T13:06:59;99259.91;;;14.37;30.09
34674;BME280;20879;55.668;37.858;2023-04-22T13:09:30;99249.75;;;14.53;30.42
34674;BME280;20879;55.668;37.858;2023-04-22T13:12:05;99259.47;;;14.72;30.08
34674;BME280;20879;55.668;37.858;2023-04-22T13:14:39;99244.91;;;14.88;29.67
34674;BME280;20879;55.668;37.858;2023-04-22T13:17:09;99260.13;;;14.99;29.45
34674;BME280;20879;55.668;37.858;2023-04-22T13:19:38;99252.66;;;15.12;29.85
34674;BME280;20879;55.668;37.858;2023-04-22T13:22:11;99239.03;;;15.26;28.85
34674;BME280;20879;55.668;37.858;2023-04-22T13:24:40;99251.88;;;15.30;28.91
34674;BME280;20879;55.668;37.858;2023-04-22T13:27:10;99220.25;;;15.38;29.08
34674;BME280;20879;55.668;37.858;2023-04-22T13:29:40;99257.31;;;15.46;28.93
34674;BME280;20879;55.668;37.858;2023-04-22T13:32:10;99257.09;;;15.51;28.51
34674;BME280;20879;55.668;37.858;2023-04-22T13:34:39;99246.13;;;15.43;28.37
34674;BME280;20879;55.668;37.858;2023-04-22T13:37:11;99238.03;;;15.49;28.56
34674;BME280;20879;55.668;37.858;2023-04-22T13:40:00;99248.09;;;15.37;28.35